Time;durP1;ratioP1;P1;durP2;ratioP2;P2;SDS_P1;SDS_P2;PMS_P1;PMS_P2;Temp;Humidity;BMP_temperature;BMP_pressure;BME280_temperature;BME280_humidity;BME280_pressure;Samples;Min_cycle;Max_cycle;Signal;HPM_P1;HPM_P2
2023/08/31 00:02:21;;;;;;;5.85;3.05;;;;;;;13.26;92.37;100748.03;5092904;28;20111;-61
2023/08/31 00:04:47;;;;;;;3.88;2.85;;;;;;;13.24;92.40;100755.13;5092562;28;20512;-61
2023/08/31 00:07:12;;;;;;;4.75;3.00;;;;;;;13.16;92.69;100749.81;5092708;28;20386;-61
2023/08/31 00:09:38;;;;;;;5.38;3.20;;;;;;;13.19;93.19;100751.53;5096438;28;20097;-62
2023/08/31 00:12:04;;;;;;;5.55;3.50;;;;;;;13.03;93.53;100751.59;5096678;28;20039;-61
2023/08/31 00:14:30;;;;;;;8.05;3.55;;;;;;;12.94;93.95;100748.94;5096361;28;20036;-60
2023/08/31 00:16:57;;;;;;;5.18;3.22;;;;;;;12.90;94.58;100749.81;5096573;28;20082;-62
2023/08/31 00:19:23;;;;;;;7.05;3.55;;;;;;;12.87;94.28;100749.81;5095812;28;20443;-62
2023/08/31 00:21:48;;;;;;;6.78;3.38;;;;;;;12.89;94.49;100750.72;5096115;28;20116;-61
2023/08/31 00:24:14;;;;;;;5.85;3.83;;;;;;;12.85;94.85;100759.56;5096152;28;20123;-60
2023/08/31 00:26:40;;;;;;;6.85;3.80;;;;;;;12.75;95.44;100747.16;5078081;28;20051;-61
2023/08/31 00:29:07;;;;;;;7.38;3.90;;;;;;;12.66;95.44;100752.47;5077863;28;20089;-60
2023/08/31 00:31:33;;;;;;;6.82;4.00;;;;;;;12.64;96.13;100751.59;5095800;28;20568;-61
2023/08/31 00:34:04;;;;;;;5.43;3.97;;;;;;;12.58;96.07;100754.22;5095881;28;20110;-60
2023/08/31 00:36:31;;;;;;;5.90;4.05;;;;;;;12.57;96.20;100752.47;5096276;28;20036;-60
2023/08/31 00:38:56;;;;;;;7.13;4.50;;;;;;;12.56;96.13;100748.94;5095881;28;20023;-61
2023/08/31 00:41:22;;;;;;;9.00;4.28;;;;;;;12.61;96.20;100757.78;5095847;28;20024;-61
2023/08/31 00:43:47;;;;;;;8.88;4.18;;;;;;;12.61;96.02;100757.78;5095818;28;20035;-61
2023/08/31 00:46:14;;;;;;;7.78;4.32;;;;;;;12.61;95.81;100752.47;5096164;28;20044;-61
2023/08/31 00:48:41;;;;;;;9.82;4.40;;;;;;;12.65;96.25;100745.41;5095682;28;20099;-61
2023/08/31 00:51:07;;;;;;;6.60;4.80;;;;;;;12.62;96.58;100745.38;5095704;28;20075;-60
2023/08/31 00:53:33;;;;;;;8.20;4.88;;;;;;;12.52;96.97;100747.16;5095635;28;20028;-60
2023/08/31 00:55:59;;;;;;;8.63;5.03;;;;;;;12.43;97.57;100748.03;5095600;28;20024;-60
2023/08/31 00:58:25;;;;;;;6.63;4.80;;;;;;;12.46;97.83;100744.47;5095418;28;20381;-61
2023/08/31 01:01:12;;;;;;;10.93;4.80;;;;;;;12.43;97.82;100755.97;5095710;28;20067;-61
2023/08/31 01:03:58;;;;;;;8.20;4.85;;;;;;;12.42;97.37;100758.59;5095397;28;20028;-60
2023/08/31 01:06:42;;;;;;;8.93;4.82;;;;;;;12.39;97.59;100748.91;5095388;28;20020;-60
2023/08/31 01:09:34;;;;;;;7.25;5.18;;;;;;;12.25;98.65;100748.88;5095270;28;20393;-61
2023/08/31 01:12:05;;;;;;;8.33;5.00;;;;;;;12.27;98.32;100741.81;5095413;28;20025;-61
2023/08/31 01:14:55;;;;;;;9.00;5.00;;;;;;;12.27;98.53;100741.81;5077166;28;20032;-61
2023/08/31 01:17:23;;;;;;;7.45;4.93;;;;;;;12.23;98.51;100742.69;5095079;28;20051;-60
2023/08/31 01:19:52;;;;;;;9.02;5.40;;;;;;;12.17;99.24;100734.72;5094706;28;20016;-61
2023/08/31 01:22:40;;;;;;;8.10;5.38;;;;;;;12.15;99.24;100743.53;5076981;28;20024;-61
2023/08/31 01:25:09;;;;;;;7.97;5.43;;;;;;;12.17;99.19;100740.03;5095141;28;20051;-60
2023/08/31 01:27:35;;;;;;;7.68;5.20;;;;;;;12.14;99.52;100741.78;5094922;28;20025;-61
2023/08/31 01:30:04;;;;;;;6.60;4.90;;;;;;;12.15;99.56;100746.19;5094805;28;20020;-61
2023/08/31 01:32:31;;;;;;;7.40;4.70;;;;;;;12.18;99.14;100747.09;5094868;28;20052;-60
2023/08/31 01:35:01;;;;;;;5.85;4.68;;;;;;;12.24;99.60;100747.09;5095030;28;20101;-60
2023/08/31 01:37:50;;;;;;;9.95;4.70;;;;;;;12.31;99.02;100755.06;5095090;28;20039;-61
2023/08/31 01:40:27;;;;;;;7.75;5.10;;;;;;;12.27;98.58;100752.41;5094715;28;20575;-60
2023/08/31 01:42:54;;;;;;;6.85;5.07;;;;;;;12.26;98.46;100757.72;5094752;28;20028;-60
2023/08/31 01:45:22;;;;;;;6.82;5.07;;;;;;;12.27;98.26;100764.78;5094648;28;20120;-61
2023/08/31 01:47:47;;;;;;;8.07;5.10;;;;;;;12.26;98.47;100763.00;5094847;28;20028;-60
2023/08/31 01:50:13;;;;;;;11.77;5.25;;;;;;;12.22;98.67;100769.19;5094363;28;20036;-60
2023/08/31 01:52:38;;;;;;;6.57;5.03;;;;;;;12.27;98.49;100763.00;5094698;28;20085;-61
2023/08/31 01:55:05;;;;;;;6.80;4.95;;;;;;;12.28;98.86;100763.88;5094378;28;20028;-60
2023/08/31 01:57:31;;;;;;;10.18;5.60;;;;;;;12.30;98.42;100763.91;5094295;28;20483;-60
2023/08/31 01:59:57;;;;;;;7.93;5.07;;;;;;;12.34;98.64;100757.75;5094165;28;20389;-60
2023/08/31 02:02:22;;;;;;;8.10;5.20;;;;;;;12.35;98.68;100762.16;5094312;28;20020;-60
2023/08/31 02:04:48;;;;;;;8.90;5.75;;;;;;;12.33;98.93;100763.88;5094499;28;20024;-62
2023/08/31 02:07:13;;;;;;;9.93;5.28;;;;;;;12.36;98.95;100759.50;5094505;28;20488;-60
2023/08/31 02:09:39;;;;;;;7.28;5.53;;;;;;;12.37;99.30;100765.66;5094201;28;20389;-60
2023/08/31 02:12:05;;;;;;;8.65;5.80;;;;;;;12.41;99.08;100765.69;5094183;28;20031;-60
2023/08/31 02:14:30;;;;;;;8.07;4.75;;;;;;;12.48;99.45;100771.88;5094320;28;20431;-61
2023/08/31 02:16:55;;;;;;;8.85;6.20;;;;;;;12.44;99.48;100767.47;5094255;28;20051;-60
2023/08/31 02:19:21;;;;;;;10.52;6.68;;;;;;;12.41;99.40;100770.09;5093746;28;20023;-61
2023/08/31 02:21:47;;;;;;;8.77;5.65;;;;;;;12.48;99.84;100770.13;5094003;28;20028;-60
2023/08/31 02:24:12;;;;;;;10.43;6.15;;;;;;;12.51;99.79;100766.59;5093900;28;20481;-61
2023/08/31 02:26:38;;;;;;;8.25;6.40;;;;;;;12.51;100.00;100758.66;5093857;28;20032;-60
2023/08/31 02:29:03;;;;;;;8.95;6.40;;;;;;;12.46;100.00;100766.59;5094104;28;20032;-60
2023/08/31 02:31:29;;;;;;;9.32;6.80;;;;;;;12.46;100.00;100755.09;5092919;28;20107;-60
2023/08/31 02:33:54;;;;;;;13.20;6.57;;;;;;;12.50;100.00;100763.06;5093743;28;20070;-60
2023/08/31 02:36:22;;;;;;;9.23;6.40;;;;;;;12.53;100.00;100760.41;5093860;28;20470;-61
2023/08/31 02:38:50;;;;;;;10.93;6.65;;;;;;;12.53;100.00;100751.56;5094022;28;20455;-61
2023/08/31 02:41:16;;;;;;;9.07;6.60;;;;;;;12.54;100.00;100763.94;5093520;28;20465;-60
2023/08/31 02:43:41;;;;;;;10.75;6.60;;;;;;;12.54;100.00;100767.47;5093874;28;20461;-60
2023/08/31 02:46:07;;;;;;;11.13;6.82;;;;;;;12.57;100.00;100774.53;5093754;28;20069;-61
2023/08/31 02:48:32;;;;;;;9.95;6.78;;;;;;;12.55;100.00;100768.38;5093436;28;20363;-60
2023/08/31 02:51:00;;;;;;;10.45;6.28;;;;;;;12.57;100.00;100769.25;5093313;28;20073;-60
2023/08/31 02:53:27;;;;;;;11.63;7.25;;;;;;;12.55;99.89;100778.97;5093466;28;20030;-61
2023/08/31 02:55:52;;;;;;;11.00;6.28;;;;;;;12.49;100.00;100768.34;5093688;28;20051;-60
2023/08/31 02:58:19;;;;;;;8.75;6.20;;;;;;;12.44;100.00;100776.28;5093478;28;20477;-60
2023/08/31 03:00:47;;;;;;;10.70;6.97;;;;;;;12.32;100.00;100775.38;5093065;28;20032;-62
2023/08/31 03:03:14;;;;;;;11.23;7.30;;;;;;;12.28;100.00;100775.38;5093415;28;20055;-60
2023/08/31 03:05:39;;;;;;;12.32;7.95;;;;;;;12.26;100.00;100769.19;5093276;28;20028;-59
2023/08/31 03:08:05;;;;;;;11.55;8.35;;;;;;;12.18;100.00;100768.28;5093228;28;20536;-60
2023/08/31 03:10:30;;;;;;;10.90;8.25;;;;;;;12.19;100.00;100775.34;5093150;28;20111;-60
2023/08/31 03:12:56;;;;;;;13.90;10.43;;;;;;;12.09;100.00;100773.56;5093188;28;20039;-60
2023/08/31 03:15:21;;;;;;;16.02;11.10;;;;;;;12.08;100.00;100779.75;5093325;28;20457;-61
2023/08/31 03:17:46;;;;;;;14.38;10.80;;;;;;;12.11;100.00;100776.19;5093239;28;20024;-61
2023/08/31 03:20:12;;;;;;;19.45;11.90;;;;;;;12.08;100.00;100773.56;5074665;28;20660;-60
2023/08/31 03:22:37;;;;;;;16.77;12.77;;;;;;;12.03;100.00;100771.78;5093034;28;20036;-60
2023/08/31 03:25:03;;;;;;;18.70;12.27;;;;;;;12.02;100.00;100780.59;5093086;28;20051;-60
2023/08/31 03:27:28;;;;;;;19.15;12.98;;;;;;;12.03;100.00;100787.66;5093061;28;20020;-61
2023/08/31 03:29:54;;;;;;;18.73;13.60;;;;;;;11.97;100.00;100781.44;5093012;28;20503;-60
2023/08/31 03:32:19;;;;;;;17.92;12.88;;;;;;;11.96;100.00;100769.97;5092415;28;20097;-61
2023/08/31 03:34:44;;;;;;;17.55;13.70;;;;;;;11.91;100.00;100771.72;5092889;28;20044;-60
2023/08/31 03:37:10;;;;;;;18.25;12.75;;;;;;;11.92;100.00;100772.63;5093055;28;20029;-60
2023/08/31 03:39:36;;;;;;;17.88;12.02;;;;;;;11.91;100.00;100765.56;5092831;28;20532;-60
2023/08/31 03:42:02;;;;;;;17.08;11.93;;;;;;;11.93;100.00;100769.06;5094526;28;20024;-60
2023/08/31 03:44:28;;;;;;;15.30;12.90;;;;;;;11.88;100.00;100765.53;5096936;28;20481;-60
2023/08/31 03:46:53;;;;;;;16.83;12.43;;;;;;;11.86;100.00;100770.84;5097020;28;20036;-61
2023/08/31 03:49:18;;;;;;;15.05;11.82;;;;;;;11.88;100.00;100765.53;5096851;28;20035;-61
2023/08/31 03:51:44;;;;;;;17.25;11.35;;;;;;;11.83;100.00;100769.94;5096681;28;20106;-61
2023/08/31 03:54:09;;;;;;;16.65;11.80;;;;;;;11.75;100.00;100768.09;5097043;28;20028;-60
2023/08/31 03:56:34;;;;;;;18.52;11.88;;;;;;;11.74;100.00;100770.75;5096824;28;20082;-60
2023/08/31 03:59:03;;;;;;;15.68;12.18;;;;;;;11.67;100.00;100761.88;5096678;28;20458;-59
2023/08/31 04:01:29;;;;;;;15.07;12.10;;;;;;;11.63;100.00;100761.84;5096961;28;20036;-61
2023/08/31 04:03:54;;;;;;;19.13;12.00;;;;;;;11.59;100.00;100770.66;5078319;28;20073;-60
2023/08/31 04:06:19;;;;;;;17.98;12.75;;;;;;;11.59;100.00;100768.88;5096632;28;20028;-61
2023/08/31 04:08:45;;;;;;;20.00;12.95;;;;;;;11.59;100.00;100768.88;5078672;28;20111;-61
2023/08/31 04:11:10;;;;;;;17.35;13.13;;;;;;;11.61;100.00;100779.50;5096540;28;20020;-61
2023/08/31 04:13:35;;;;;;;21.33;14.10;;;;;;;11.59;100.00;100790.06;5096400;28;20028;-61
2023/08/31 04:16:01;;;;;;;19.25;14.27;;;;;;;11.55;100.00;100788.25;5096456;28;20103;-60
2023/08/31 04:18:27;;;;;;;20.48;15.15;;;;;;;11.48;100.00;100783.84;5096496;28;20111;-61
2023/08/31 04:20:53;;;;;;;20.67;14.75;;;;;;;11.53;100.00;100796.22;5096236;28;20490;-61
2023/08/31 04:23:19;;;;;;;20.10;14.10;;;;;;;11.51;100.00;100792.66;5096281;28;20073;-59
2023/08/31 04:25:46;;;;;;;20.55;14.77;;;;;;;11.49;100.00;100791.78;5078055;28;20031;-61
2023/08/31 04:28:11;;;;;;;20.45;14.32;;;;;;;11.50;100.00;100790.88;5078023;28;20035;-60
2023/08/31 04:30:37;;;;;;;20.17;14.60;;;;;;;11.54;100.00;100789.16;5096069;28;20032;-61
2023/08/31 04:33:04;;;;;;;21.40;13.73;;;;;;;11.57;100.00;100794.47;5096077;28;20130;-60
2023/08/31 04:35:31;;;;;;;18.15;13.00;;;;;;;11.57;100.00;100799.75;5095981;28;20496;-60
2023/08/31 04:37:56;;;;;;;16.67;12.52;;;;;;;11.64;100.00;100801.53;5096270;28;20480;-61
2023/08/31 04:40:22;;;;;;;17.13;12.90;;;;;;;11.66;100.00;100806.88;5095819;28;20064;-61
2023/08/31 04:42:47;;;;;;;16.10;11.90;;;;;;;11.71;100.00;100806.00;5096150;28;20056;-60
2023/08/31 04:45:13;;;;;;;17.23;12.38;;;;;;;11.63;100.00;100796.25;5095755;28;20055;-61
2023/08/31 04:47:38;;;;;;;16.63;12.48;;;;;;;11.62;100.00;100803.31;5077527;28;20081;-60
2023/08/31 04:50:06;;;;;;;17.75;12.90;;;;;;;11.59;100.00;100803.28;5095291;28;20035;-60
2023/08/31 04:52:31;;;;;;;24.35;12.10;;;;;;;11.54;100.00;100810.31;5095305;28;20035;-60
2023/08/31 04:54:57;;;;;;;15.70;11.25;;;;;;;11.53;100.00;100803.25;5094672;28;20024;-59
2023/08/31 04:57:23;;;;;;;14.52;10.85;;;;;;;11.53;100.00;100803.25;5095323;28;20020;-61
2023/08/31 04:59:49;;;;;;;15.25;10.32;;;;;;;11.57;100.00;100813.00;5060567;28;20442;-61
2023/08/31 05:02:14;;;;;;;14.23;10.50;;;;;;;11.56;100.00;100815.59;5095304;28;20039;-61
2023/08/31 05:04:40;;;;;;;15.80;9.98;;;;;;;11.59;100.00;100823.56;5095135;28;20533;-61
2023/08/31 05:07:05;;;;;;;12.82;9.95;;;;;;;11.58;100.00;100821.81;5094992;28;20512;-61
2023/08/31 05:09:34;;;;;;;13.00;8.95;;;;;;;11.61;100.00;100829.78;5094931;28;20040;-61
2023/08/31 05:12:02;;;;;;;10.70;8.35;;;;;;;11.66;100.00;100828.03;5094899;28;20562;-61
2023/08/31 05:14:27;;;;;;;11.93;8.75;;;;;;;11.65;100.00;100824.53;5094686;28;20040;-62
2023/08/31 05:16:53;;;;;;;12.13;9.07;;;;;;;11.67;100.00;100835.09;5094885;28;20070;-60
2023/08/31 05:19:18;;;;;;;12.43;8.57;;;;;;;11.69;100.00;100823.66;5094490;28;20086;-61
2023/08/31 05:21:44;;;;;;;14.15;8.35;;;;;;;11.73;100.00;100833.38;5094500;28;20028;-61
2023/08/31 05:24:09;;;;;;;10.10;7.93;;;;;;;11.76;100.00;100836.03;5094793;28;20064;-60
2023/08/31 05:26:34;;;;;;;11.48;7.95;;;;;;;11.80;100.00;100847.53;5094778;28;20367;-60
2023/08/31 05:29:00;;;;;;;11.38;7.10;;;;;;;11.84;100.00;100845.81;5094773;28;20031;-61
2023/08/31 05:31:25;;;;;;;11.63;7.65;;;;;;;11.88;100.00;100850.25;5076233;28;20486;-61
2023/08/31 05:33:51;;;;;;;10.88;7.38;;;;;;;11.85;100.00;100860.81;5076033;28;20135;-61
2023/08/31 05:36:16;;;;;;;10.70;7.68;;;;;;;11.84;100.00;100861.72;5094647;28;20055;-61
2023/08/31 05:38:41;;;;;;;11.57;7.70;;;;;;;11.82;100.00;100861.69;5075952;28;20058;-61
2023/08/31 05:41:08;;;;;;;9.25;6.70;;;;;;;11.86;100.00;100865.22;5094359;28;20024;-62
2023/08/31 05:43:34;;;;;;;12.75;6.40;;;;;;;11.89;100.00;100871.44;5094413;28;20055;-61
2023/08/31 05:46:00;;;;;;;8.80;5.95;;;;;;;11.95;100.00;100875.91;5094195;28;20454;-60
2023/08/31 05:48:25;;;;;;;9.93;6.50;;;;;;;11.99;100.00;100867.97;5075854;28;20027;-60
2023/08/31 05:50:51;;;;;;;9.10;6.65;;;;;;;11.96;100.00;100860.00;5094220;28;20032;-61
2023/08/31 05:53:16;;;;;;;10.18;6.22;;;;;;;12.02;100.00;100877.69;5075993;28;20052;-62
2023/08/31 05:55:42;;;;;;;7.55;5.95;;;;;;;12.01;100.00;100868.88;5094216;28;20024;-61
2023/08/31 05:58:07;;;;;;;7.97;5.50;;;;;;;12.05;100.00;100877.72;5093878;28;20035;-62
2023/08/31 06:00:33;;;;;;;13.45;6.20;;;;;;;12.21;100.00;100870.75;5093851;28;20408;-60
2023/08/31 06:02:58;;;;;;;11.20;6.50;;;;;;;12.35;100.00;100876.09;5093944;28;20024;-61
2023/08/31 06:05:23;;;;;;;9.57;6.05;;;;;;;12.46;100.00;100877.91;5092972;28;20107;-62
2023/08/31 06:07:49;;;;;;;10.07;5.85;;;;;;;12.65;100.00;100873.53;5093779;28;20500;-61
2023/08/31 06:10:15;;;;;;;9.38;6.13;;;;;;;12.81;100.00;100878.88;5093900;28;20024;-60
2023/08/31 06:12:40;;;;;;;8.50;5.80;;;;;;;12.97;100.00;100884.19;5093682;28;20386;-61
2023/08/31 06:15:06;;;;;;;11.02;5.97;;;;;;;13.08;100.00;100880.69;5093851;28;20028;-62
2023/08/31 06:17:32;;;;;;;10.07;5.50;;;;;;;13.23;100.00;100883.38;5093628;28;20024;-62
2023/08/31 06:19:57;;;;;;;10.55;5.75;;;;;;;13.33;100.00;100879.84;5093172;28;20109;-60
2023/08/31 06:22:24;;;;;;;10.30;5.93;;;;;;;13.46;100.00;100886.94;5093351;28;20474;-61
2023/08/31 06:24:50;;;;;;;9.25;5.80;;;;;;;13.60;100.00;100889.56;5093380;28;20474;-61
2023/08/31 06:27:16;;;;;;;10.05;5.22;;;;;;;13.78;99.80;100886.00;5093555;28;20036;-61
2023/08/31 06:29:42;;;;;;;10.63;5.40;;;;;;;13.96;99.15;100887.72;5093581;28;20032;-62
2023/08/31 06:32:07;;;;;;;9.20;5.30;;;;;;;14.13;98.65;100887.69;5074875;28;20554;-61
2023/08/31 06:34:32;;;;;;;10.98;5.38;;;;;;;14.24;97.42;100883.22;5093206;28;20056;-61
2023/08/31 06:36:58;;;;;;;9.40;5.03;;;;;;;14.33;96.96;100885.84;5093302;28;20028;-62
2023/08/31 06:39:24;;;;;;;9.82;5.18;;;;;;;14.43;96.67;100897.31;5093481;28;20028;-62
2023/08/31 06:41:49;;;;;;;8.65;5.13;;;;;;;14.50;96.38;100893.78;5093277;28;20024;-62
2023/08/31 06:44:15;;;;;;;10.55;4.80;;;;;;;14.65;96.82;100898.16;5093204;28;20028;-62
2023/08/31 06:46:40;;;;;;;9.13;5.00;;;;;;;14.78;95.79;100903.41;5093320;28;20036;-62
2023/08/31 06:49:06;;;;;;;8.40;5.13;;;;;;;14.90;94.81;100902.44;5093140;28;20118;-60
2023/08/31 06:51:34;;;;;;;8.75;4.78;;;;;;;14.96;94.57;100902.41;5074669;28;20024;-61
2023/08/31 06:54:04;;;;;;;8.35;5.07;;;;;;;15.06;93.88;100905.00;5092895;28;20028;-61
2023/08/31 06:56:30;;;;;;;9.40;4.88;;;;;;;15.15;94.16;100905.81;5075966;28;20028;-61
2023/08/31 06:58:55;;;;;;;11.23;5.47;;;;;;;15.33;93.91;100910.13;5092642;28;20462;-61
2023/08/31 07:01:20;;;;;;;7.22;5.05;;;;;;;15.45;93.32;100912.66;5092883;28;20095;-60
2023/08/31 07:03:46;;;;;;;6.72;4.78;;;;;;;15.55;92.75;100915.28;5092647;28;20032;-61
2023/08/31 07:06:11;;;;;;;8.55;5.05;;;;;;;15.65;92.02;100917.00;5074610;28;20062;-62
2023/08/31 07:08:40;;;;;;;9.43;4.90;;;;;;;15.75;91.40;100926.66;5092739;28;20028;-60
2023/08/31 07:11:06;;;;;;;6.22;4.68;;;;;;;15.83;91.53;100918.59;5074555;28;20166;-60
2023/08/31 07:13:31;;;;;;;9.20;4.88;;;;;;;16.00;90.77;100921.97;5074811;28;20048;-61
2023/08/31 07:15:57;;;;;;;9.25;5.00;;;;;;;16.20;90.21;100924.44;5092533;28;20020;-61
2023/08/31 07:18:22;;;;;;;9.32;4.75;;;;;;;16.37;89.96;100924.25;5092539;28;20232;-60
2023/08/31 07:20:47;;;;;;;8.02;5.03;;;;;;;16.54;89.21;100924.91;5092244;28;20034;-61
2023/08/31 07:23:13;;;;;;;9.45;5.10;;;;;;;16.78;88.69;100929.06;5092542;28;20069;-61
2023/08/31 07:25:38;;;;;;;9.70;4.85;;;;;;;16.94;87.68;100930.63;5092759;28;20032;-61
2023/08/31 07:28:04;;;;;;;11.23;4.70;;;;;;;17.03;86.73;100937.63;5093067;28;20374;-61
2023/08/31 07:30:30;;;;;;;9.65;5.00;;;;;;;17.23;86.65;100932.88;5092790;28;20397;-61
2023/08/31 07:32:55;;;;;;;9.23;4.80;;;;;;;17.40;85.01;100929.06;5092447;28;20048;-60
2023/08/31 07:35:21;;;;;;;8.65;5.05;;;;;;;17.67;85.39;100936.63;5092643;28;20358;-61
2023/08/31 07:37:46;;;;;;;11.77;4.22;;;;;;;17.81;83.87;100933.72;5092555;28;20549;-61
2023/08/31 07:40:12;;;;;;;8.45;4.80;;;;;;;17.95;83.17;100929.03;5092414;28;20039;-61
2023/08/31 07:42:37;;;;;;;8.70;5.03;;;;;;;18.11;82.26;100931.41;5092431;28;20541;-60
2023/08/31 07:45:05;;;;;;;10.20;5.15;;;;;;;18.37;81.75;100930.91;5091553;28;20112;-61
2023/08/31 07:47:31;;;;;;;14.65;4.95;;;;;;;18.52;80.67;100930.59;5092198;28;20036;-60
2023/08/31 07:49:56;;;;;;;8.93;4.70;;;;;;;18.73;79.91;100934.66;5091918;28;20028;-60
2023/08/31 07:52:22;;;;;;;10.18;4.75;;;;;;;18.92;78.69;100936.00;5092500;28;20330;-60
2023/08/31 07:54:47;;;;;;;12.25;4.90;;;;;;;19.00;77.20;100941.19;5092345;28;20489;-59
2023/08/31 07:57:13;;;;;;;9.82;4.60;;;;;;;19.02;77.18;100932.22;5092242;28;20035;-60
2023/08/31 07:59:40;;;;;;;11.15;5.10;;;;;;;19.23;76.97;100935.34;5092082;28;20028;-59
2023/08/31 08:02:06;;;;;;;9.88;4.68;;;;;;;19.28;76.37;100930.75;5092264;28;20089;-60
2023/08/31 08:04:31;;;;;;;10.18;4.43;;;;;;;19.52;75.71;100940.84;5092330;28;20024;-60
2023/08/31 08:06:57;;;;;;;11.05;4.63;;;;;;;19.65;73.68;100945.94;5092493;28;20054;-60
2023/08/31 08:09:22;;;;;;;9.52;4.60;;;;;;;19.64;74.42;100938.81;5092190;28;20078;-60
2023/08/31 08:11:48;;;;;;;8.95;5.20;;;;;;;19.74;73.30;100946.63;5092174;28;20024;-60
2023/08/31 08:14:15;;;;;;;10.52;4.97;;;;;;;19.87;72.83;100944.50;5092055;28;20031;-60
2023/08/31 08:16:41;;;;;;;8.60;4.57;;;;;;;19.96;72.05;100949.63;5092035;28;20032;-61
2023/08/31 08:19:07;;;;;;;10.02;4.65;;;;;;;20.12;71.85;100943.81;5091836;28;20024;-59
2023/08/31 08:21:33;;;;;;;7.15;4.50;;;;;;;20.07;71.36;100948.44;5091960;28;20033;-60
2023/08/31 08:23:58;;;;;;;8.77;4.85;;;;;;;20.22;71.82;100940.84;5091889;28;20068;-61
2023/08/31 08:26:24;;;;;;;11.50;4.95;;;;;;;20.37;71.32;100944.91;5073787;28;20119;-61
2023/08/31 08:28:50;;;;;;;12.93;4.60;;;;;;;20.61;70.21;100945.19;5093025;28;20165;-61
2023/08/31 08:31:15;;;;;;;8.35;4.50;;;;;;;20.81;70.31;100947.25;5095569;28;20105;-60
2023/08/31 08:33:41;;;;;;;12.70;4.90;;;;;;;20.97;68.54;100951.25;5095354;28;20055;-59
2023/08/31 08:36:06;;;;;;;7.97;4.78;;;;;;;20.90;68.52;100952.38;5095915;28;20107;-59
2023/08/31 08:38:31;;;;;;;7.25;4.30;;;;;;;21.10;67.50;100947.25;5077559;28;20073;-60
2023/08/31 08:40:57;;;;;;;9.82;4.47;;;;;;;21.06;66.80;100963.50;5095404;28;20047;-60
2023/08/31 08:43:26;;;;;;;8.15;4.55;;;;;;;21.18;67.66;100965.81;5077800;28;20091;-61
2023/08/31 08:45:54;;;;;;;12.75;4.72;;;;;;;21.18;67.86;100960.44;5095272;28;20110;-61
2023/08/31 08:48:20;;;;;;;9.43;4.50;;;;;;;21.32;67.47;100968.97;5095342;28;20078;-62
2023/08/31 08:50:46;;;;;;;8.95;4.68;;;;;;;21.53;66.25;100961.16;5095153;28;20541;-59
2023/08/31 08:53:13;;;;;;;11.75;5.10;;;;;;;21.47;66.10;100973.88;5095549;28;20111;-61
2023/08/31 08:55:40;;;;;;;12.73;4.63;;;;;;;21.50;65.79;100965.72;5077310;28;20028;-61
2023/08/31 08:58:06;;;;;;;9.70;4.72;;;;;;;21.47;64.25;100973.88;5095224;28;20020;-61
2023/08/31 09:00:33;;;;;;;9.00;4.68;;;;;;;21.49;64.46;100976.50;5095018;28;20031;-61
2023/08/31 09:03:00;;;;;;;11.38;4.90;;;;;;;21.51;63.71;100963.91;5076888;28;20428;-61
2023/08/31 09:05:26;;;;;;;8.80;4.55;;;;;;;21.78;65.34;100964.78;5095025;28;20390;-61
2023/08/31 09:08:12;;;;;;;9.55;4.55;;;;;;;22.13;64.68;100957.34;5094977;28;20021;-61
2023/08/31 09:10:41;;;;;;;7.72;4.50;;;;;;;22.38;62.51;100965.44;5095315;28;20085;-60
2023/08/31 09:13:08;;;;;;;9.00;4.60;;;;;;;22.48;61.29;100964.16;5094874;28;20028;-60
2023/08/31 09:15:43;;;;;;;11.02;4.47;;;;;;;22.54;61.97;100963.94;5094635;28;20479;-59
2023/08/31 09:18:16;;;;;;;8.02;4.20;;;;;;;22.73;61.41;100961.44;5077128;28;20032;-59
2023/08/31 09:20:48;;;;;;;8.00;4.10;;;;;;;22.90;61.09;100959.00;5094659;28;20028;-59
2023/08/31 09:23:14;;;;;;;10.98;4.18;;;;;;;23.06;59.75;100961.09;5094653;28;20024;-60
2023/08/31 09:25:44;;;;;;;7.65;4.30;;;;;;;22.87;59.25;100966.28;5094627;28;20024;-59
2023/08/31 09:28:12;;;;;;;8.20;3.88;;;;;;;22.70;58.08;100970.53;5094477;28;20523;-61
2023/08/31 09:30:37;;;;;;;9.88;4.43;;;;;;;22.65;59.04;100968.91;5094499;28;20028;-60
2023/08/31 09:33:05;;;;;;;9.55;4.15;;;;;;;22.48;59.55;100970.44;5094207;28;20050;-59
2023/08/31 09:35:31;;;;;;;8.88;3.88;;;;;;;22.44;60.31;100968.78;5076108;28;20553;-60
2023/08/31 09:37:57;;;;;;;9.38;4.35;;;;;;;22.64;60.64;100973.44;5094380;28;20036;-60
2023/08/31 09:40:23;;;;;;;10.05;4.05;;;;;;;22.94;58.62;100979.50;5094146;28;20032;-61
2023/08/31 09:42:51;;;;;;;10.05;3.83;;;;;;;23.13;59.15;100977.00;5075808;28;20530;-60
2023/08/31 09:45:18;;;;;;;8.75;3.95;;;;;;;23.21;57.38;100979.34;5094228;28;20123;-61
2023/08/31 09:47:44;;;;;;;11.02;4.15;;;;;;;23.09;56.50;100986.13;5094509;28;20024;-59
2023/08/31 09:50:12;;;;;;;7.15;4.28;;;;;;;23.04;57.51;100976.44;5093709;28;20058;-60
2023/08/31 09:52:38;;;;;;;8.30;4.15;;;;;;;23.27;57.85;100983.66;5094450;28;20048;-60
2023/08/31 09:55:05;;;;;;;7.70;4.20;;;;;;;23.48;56.38;100977.41;5093983;28;20031;-61
2023/08/31 09:57:31;;;;;;;9.18;4.32;;;;;;;23.59;57.11;100980.50;5094315;28;20103;-60
2023/08/31 09:59:59;;;;;;;11.13;4.22;;;;;;;23.59;56.51;100980.50;5094029;28;20024;-60
2023/08/31 10:02:26;;;;;;;12.45;4.22;;;;;;;23.36;54.17;100985.97;5094079;28;20047;-60
2023/08/31 10:04:53;;;;;;;6.75;4.20;;;;;;;23.03;55.16;100986.34;5075572;28;20031;-60
2023/08/31 10:07:19;;;;;;;8.88;4.15;;;;;;;22.85;56.85;100981.66;5075611;28;20024;-60
2023/08/31 10:09:47;;;;;;;10.23;4.03;;;;;;;22.83;56.66;100981.72;5093739;28;20036;-61
2023/08/31 10:12:13;;;;;;;9.57;4.03;;;;;;;22.78;56.57;100978.28;5075805;28;20026;-60
2023/08/31 10:14:39;;;;;;;7.78;3.90;;;;;;;22.77;55.61;100979.22;5093816;28;20081;-60
2023/08/31 10:17:06;;;;;;;6.90;3.50;;;;;;;22.77;54.81;100981.06;5093541;28;20028;-61
2023/08/31 10:19:31;;;;;;;8.82;3.60;;;;;;;22.87;53.98;100983.34;5093418;28;20077;-60
2023/08/31 10:22:00;;;;;;;7.70;3.38;;;;;;;23.03;53.64;100985.47;5093147;28;20129;-60
2023/08/31 10:25:03;;;;;;;10.43;3.60;;;;;;;23.02;54.73;100975.66;5093444;28;20025;-60
2023/08/31 10:27:39;;;;;;;9.68;3.97;;;;;;;23.02;54.22;100976.53;5093280;28;20509;-60
2023/08/31 10:30:14;;;;;;;9.07;4.03;;;;;;;23.29;54.90;100968.28;5093480;28;20020;-61
2023/08/31 10:32:39;;;;;;;8.95;3.63;;;;;;;23.22;51.81;100971.22;5093311;28;20131;-59
2023/08/31 10:35:06;;;;;;;10.38;3.50;;;;;;;23.09;52.85;100964.56;5093254;28;20075;-60
2023/08/31 10:37:31;;;;;;;7.15;3.60;;;;;;;23.09;53.23;100969.97;5093283;28;20031;-61
2023/08/31 10:40:11;;;;;;;10.88;3.95;;;;;;;23.33;54.64;100967.22;5093080;28;20032;-60
2023/08/31 10:42:47;;;;;;;11.90;3.97;;;;;;;23.60;52.80;100976.91;5093453;28;20166;-61
2023/08/31 10:45:13;;;;;;;10.70;4.00;;;;;;;23.74;52.73;100966.44;5093127;28;20031;-61
2023/08/31 10:47:42;;;;;;;7.32;3.47;;;;;;;24.02;52.19;100972.47;5093423;28;20038;-61
2023/08/31 10:50:22;;;;;;;14.18;4.05;;;;;;;24.05;52.26;100956.16;5092810;28;20067;-61
2023/08/31 10:52:48;;;;;;;7.15;3.40;;;;;;;24.26;49.58;100951.63;5092729;28;20023;-60
2023/08/31 10:55:13;;;;;;;8.88;3.30;;;;;;;24.31;50.39;100942.38;5092949;28;20020;-61
2023/08/31 10:57:40;;;;;;;7.50;3.05;;;;;;;24.37;48.16;100957.44;5093039;28;20032;-61
2023/08/31 11:00:07;;;;;;;8.60;3.25;;;;;;;24.16;46.58;100949.34;5074652;28;20103;-60
2023/08/31 11:02:43;;;;;;;6.05;3.08;;;;;;;24.10;47.71;100944.19;5092945;28;20020;-61
2023/08/31 11:05:12;;;;;;;6.50;3.08;;;;;;;23.97;47.35;100960.03;5092709;28;20020;-60
2023/08/31 11:07:40;;;;;;;6.63;3.05;;;;;;;23.95;48.11;100944.88;5092865;28;20024;-60
2023/08/31 11:10:17;;;;;;;8.40;3.35;;;;;;;24.09;48.05;100941.56;5092687;28;20038;-61
2023/08/31 11:12:45;;;;;;;6.40;3.17;;;;;;;23.79;47.86;100941.06;5093151;28;20102;-61
2023/08/31 11:15:19;;;;;;;6.57;3.20;;;;;;;23.62;48.64;100948.03;5092954;28;20039;-60
2023/08/31 11:17:46;;;;;;;6.72;3.15;;;;;;;23.54;49.49;100952.84;5074986;28;20470;-59